Time,TemperatureF,DewpointF,PressureIn,WindDirection,WindDirectionDegrees,WindSpeedMPH,WindSpeedGustMPH,Humidity,HourlyPrecipIn,Conditions,Clouds,dailyrainin,SoftwareType,DateUTC
2013-02-25 00:03:00,32.1,30.3,29.89,North,350,1.0,4.0,93,0.00,,,0.00,LWC V2.10 B1813,2013-02-25 05:03:00,
2013-02-25 00:08:00,32.1,30.3,29.89,NNW,341,1.0,2.0,93,0.00,,,0.00,LWC V2.10 B1813,2013-02-25 05:08:00,
2013-02-25 00:13:00,32.1,30.3,29.89,NNE,20,1.0,2.0,93,0.00,,,0.00,LWC V2.10 B1813,2013-02-25 05:13:00,
2013-02-25 00:18:00,32.1,30.3,29.89,WNW,291,2.0,2.0,93,0.00,,,0.00,LWC V2.10 B1813,2013-02-25 05:18:00,
2013-02-25 00:23:00,32.1,30.3,29.89,NW,308,1.0,2.0,93,0.00,,,0.00,LWC V2.10 B1813,2013-02-25 05:23:00,
2013-02-25 00:28:00,32.0,30.2,29.89,NW,315,4.0,4.0,93,0.00,,,0.00,LWC V2.10 B1813,2013-02-25 05:28:00,
2013-02-25 00:33:00,32.0,30.2,29.90,NW,306,0.0,2.0,93,0.00,,,0.00,LWC V2.10 B1813,2013-02-25 05:33:00,
2013-02-25 00:38:00,31.9,30.1,29.90,NW,310,0.0,2.0,93,0.00,,,0.00,LWC V2.10 B1813,2013-02-25 05:38:00,
2013-02-25 00:43:00,31.9,30.1,29.90,NW,308,0.0,4.0,93,0.00,,,0.00,LWC V2.10 B1813,2013-02-25 05:43:00,
2013-02-25 00:48:00,32.0,29.9,29.91,WNW,289,1.0,2.0,92,0.00,,,0.00,LWC V2.10 B1813,2013-02-25 05:48:00,
2013-02-25 00:58:00,32.0,29.9,29.91,WNW,283,1.0,2.0,92,0.00,,,0.00,LWC V2.10 B1813,2013-02-25 05:58:00,
2013-02-25 01:03:00,31.9,29.8,29.91,NNW,332,2.0,2.0,92,0.00,,,0.00,LWC V2.10 B1813,2013-02-25 06:03:00,
2013-02-25 01:13:00,32.1,29.8,29.92,NNW,339,4.0,4.0,91,0.00,,,0.00,LWC V2.10 B1813,2013-02-25 06:13:00,
2013-02-25 01:18:00,32.1,29.8,29.92,NE,39,4.0,4.0,91,0.00,,,0.00,LWC V2.10 B1813,2013-02-25 06:18:00,
2013-02-25 01:23:00,32.1,29.8,29.92,NNW,327,1.0,3.0,91,0.00,,,0.00,LWC V2.10 B1813,2013-02-25 06:23:00,
2013-02-25 01:28:00,32.0,29.7,29.92,WNW,303,0.0,1.0,91,0.00,,,0.00,LWC V2.10 B1813,2013-02-25 06:28:00,
2013-02-25 01:33:00,31.9,29.8,29.92,NW,311,1.0,3.0,92,0.00,,,0.00,LWC V2.10 B1813,2013-02-25 06:33:00,
2013-02-25 01:38:00,31.8,29.7,29.92,WNW,293,2.0,5.0,92,0.00,,,0.00,LWC V2.10 B1813,2013-02-25 06:38:00,
2013-02-25 01:43:00,31.8,29.7,29.92,NNW,341,1.0,2.0,92,0.00,,,0.00,LWC V2.10 B1813,2013-02-25 06:43:00,
2013-02-25 01:48:00,31.6,29.5,29.92,North,354,2.0,5.0,92,0.00,,,0.00,LWC V2.10 B1813,2013-02-25 06:48:00,
2013-02-25 01:53:00,31.6,29.5,29.93,WNW,282,1.0,2.0,92,0.00,,,0.00,LWC V2.10 B1813,2013-02-25 06:53:00,
2013-02-25 01:58:00,31.4,29.4,29.92,NW,304,0.0,2.0,92,0.00,,,0.00,LWC V2.10 B1813,2013-02-25 06:58:00,
2013-02-25 02:03:00,31.3,29.3,29.92,NNW,331,1.0,2.0,92,0.00,,,0.00,LWC V2.10 B1813,2013-02-25 07:03:00,
2013-02-25 02:08:00,31.2,29.2,29.93,NW,318,2.0,2.0,92,0.00,,,0.00,LWC V2.10 B1813,2013-02-25 07:08:00,
2013-02-25 02:13:00,31.0,29.2,29.93,NW,308,1.0,2.0,93,0.00,,,0.00,LWC V2.10 B1813,2013-02-25 07:13:00,
2013-02-25 02:18:00,30.9,29.1,29.93,NW,309,2.0,2.0,93,0.00,,,0.00,LWC V2.10 B1813,2013-02-25 07:18:00,
2013-02-25 02:23:00,30.8,29.3,29.93,North,2,0.0,2.0,94,0.00,,,0.00,LWC V2.10 B1813,2013-02-25 07:23:00,
2013-02-25 02:28:00,30.8,29.3,29.93,WNW,298,0.0,1.0,94,0.00,,,0.00,LWC V2.10 B1813,2013-02-25 07:28:00,
2013-02-25 02:33:00,30.8,29.3,29.93,NNW,334,1.0,2.0,94,0.00,,,0.00,LWC V2.10 B1813,2013-02-25 07:33:00,
2013-02-25 02:38:00,30.8,29.3,29.93,West,269,0.0,0.0,94,0.00,,,0.00,LWC V2.10 B1813,2013-02-25 07:38:00,
2013-02-25 02:43:00,30.8,29.3,29.93,West,269,0.0,0.0,94,0.00,,,0.00,LWC V2.10 B1813,2013-02-25 07:43:00,
2013-02-25 02:48:00,30.8,29.3,29.93,West,268,0.0,1.0,94,0.00,,,0.00,LWC V2.10 B1813,2013-02-25 07:48:00,
2013-02-25 02:53:00,30.9,29.4,29.94,West,276,0.0,0.0,94,0.00,,,0.00,LWC V2.10 B1813,2013-02-25 07:53:00,
2013-02-25 02:58:00,30.9,29.4,29.94,West,276,0.0,0.0,94,0.00,,,0.00,LWC V2.10 B1813,2013-02-25 07:58:00,
2013-02-25 03:03:00,30.8,29.5,29.94,West,276,0.0,0.0,95,0.00,,,0.00,LWC V2.10 B1813,2013-02-25 08:03:00,
2013-02-25 03:08:00,30.8,29.5,29.94,West,276,0.0,0.0,95,0.00,,,0.00,LWC V2.10 B1813,2013-02-25 08:08:00,
2013-02-25 03:13:00,30.8,29.5,29.94,West,276,0.0,0.0,95,0.00,,,0.00,LWC V2.10 B1813,2013-02-25 08:13:00,
2013-02-25 03:18:00,30.6,29.3,29.94,South,177,0.0,1.0,95,0.00,,,0.00,LWC V2.10 B1813,2013-02-25 08:18:00,
2013-02-25 03:23:00,30.6,29.3,29.94,SSE,158,0.0,0.0,95,0.00,,,0.00,LWC V2.10 B1813,2013-02-25 08:23:00,
2013-02-25 03:28:00,30.4,29.1,29.94,SSE,158,0.0,0.0,95,0.00,,,0.00,LWC V2.10 B1813,2013-02-25 08:28:00,
2013-02-25 03:33:00,30.1,29.1,29.94,SSE,160,0.0,0.0,96,0.00,,,0.00,LWC V2.10 B1813,2013-02-25 08:33:00,
2013-02-25 03:38:00,29.9,28.9,29.95,West,269,0.0,0.0,96,0.00,,,0.00,LWC V2.10 B1813,2013-02-25 08:38:00,
2013-02-25 03:43:00,29.8,28.8,29.95,West,275,0.0,0.0,96,0.00,,,0.00,LWC V2.10 B1813,2013-02-25 08:43:00,
2013-02-25 03:48:00,29.7,28.7,29.95,West,275,0.0,0.0,96,0.00,,,0.00,LWC V2.10 B1813,2013-02-25 08:48:00,
2013-02-25 03:53:00,29.6,28.6,29.95,West,275,0.0,0.0,96,0.00,,,0.00,LWC V2.10 B1813,2013-02-25 08:53:00,
2013-02-25 03:58:00,29.4,28.7,29.95,West,275,0.0,0.0,97,0.00,,,0.00,LWC V2.10 B1813,2013-02-25 08:58:00,
2013-02-25 04:03:00,29.4,28.7,29.95,West,275,0.0,0.0,97,0.00,,,0.00,LWC V2.10 B1813,2013-02-25 09:03:00,
2013-02-25 04:08:00,29.3,28.6,29.95,West,275,0.0,0.0,97,0.00,,,0.00,LWC V2.10 B1813,2013-02-25 09:08:00,
2013-02-25 04:13:00,29.2,28.5,29.95,West,265,0.0,0.0,97,0.00,,,0.00,LWC V2.10 B1813,2013-02-25 09:13:00,
2013-02-25 04:18:00,29.1,28.4,29.95,West,265,0.0,0.0,97,0.00,,,0.00,LWC V2.10 B1813,2013-02-25 09:18:00,
2013-02-25 04:23:00,29.0,28.3,29.96,West,265,0.0,0.0,97,0.00,,,0.00,LWC V2.10 B1813,2013-02-25 09:23:00,
2013-02-25 04:28:00,28.9,28.2,29.96,West,265,0.0,0.0,97,0.00,,,0.00,LWC V2.10 B1813,2013-02-25 09:28:00,
2013-02-25 04:33:00,28.8,28.1,29.96,West,265,0.0,0.0,97,0.00,,,0.00,LWC V2.10 B1813,2013-02-25 09:33:00,
2013-02-25 04:38:00,28.7,28.0,29.97,West,265,0.0,0.0,97,0.00,,,0.00,LWC V2.10 B1813,2013-02-25 09:38:00,
2013-02-25 04:43:00,28.5,27.8,29.97,West,265,0.0,0.0,97,0.00,,,0.00,LWC V2.10 B1813,2013-02-25 09:43:00,
2013-02-25 04:48:00,28.4,27.7,29.97,West,272,0.0,0.0,97,0.00,,,0.00,LWC V2.10 B1813,2013-02-25 09:48:00,
2013-02-25 04:53:00,28.4,27.7,29.97,West,272,0.0,0.0,97,0.00,,,0.00,LWC V2.10 B1813,2013-02-25 09:53:00,
2013-02-25 04:58:00,28.3,27.6,29.97,West,272,0.0,0.0,97,0.00,,,0.00,LWC V2.10 B1813,2013-02-25 09:58:00,
2013-02-25 05:03:00,28.1,27.4,29.97,West,272,0.0,0.0,97,0.00,,,0.00,LWC V2.10 B1813,2013-02-25 10:03:00,
2013-02-25 05:08:00,28.0,27.5,29.97,West,270,0.0,0.0,98,0.00,,,0.00,LWC V2.10 B1813,2013-02-25 10:08:00,
2013-02-25 05:13:00,28.0,27.5,29.98,West,271,0.0,0.0,98,0.00,,,0.00,LWC V2.10 B1813,2013-02-25 10:13:00,
2013-02-25 05:18:00,27.9,27.4,29.98,West,270,0.0,0.0,98,0.00,,,0.00,LWC V2.10 B1813,2013-02-25 10:18:00,
2013-02-25 05:23:00,27.7,27.2,29.98,West,271,0.0,0.0,98,0.00,,,0.00,LWC V2.10 B1813,2013-02-25 10:23:00,
2013-02-25 05:28:00,27.7,27.2,29.98,WNW,286,0.0,0.0,98,0.00,,,0.00,LWC V2.10 B1813,2013-02-25 10:28:00,
2013-02-25 05:33:00,27.6,27.1,29.98,WNW,286,0.0,0.0,98,0.00,,,0.00,LWC V2.10 B1813,2013-02-25 10:33:00,
2013-02-25 05:38:00,27.5,27.0,29.98,WNW,286,0.0,0.0,98,0.00,,,0.00,LWC V2.10 B1813,2013-02-25 10:38:00,
2013-02-25 05:43:00,27.4,26.9,29.99,WNW,286,0.0,0.0,98,0.00,,,0.00,LWC V2.10 B1813,2013-02-25 10:43:00,
2013-02-25 05:48:00,27.3,26.8,29.99,WNW,286,0.0,0.0,98,0.00,,,0.00,LWC V2.10 B1813,2013-02-25 10:48:00,
2013-02-25 05:53:00,27.4,26.9,29.99,WNW,287,0.0,0.0,98,0.00,,,0.00,LWC V2.10 B1813,2013-02-25 10:53:00,
2013-02-25 05:58:00,27.4,26.9,29.99,WNW,287,0.0,0.0,98,0.00,,,0.00,LWC V2.10 B1813,2013-02-25 10:58:00,
2013-02-25 06:03:00,27.3,26.8,29.99,WNW,287,0.0,0.0,98,0.00,,,0.00,LWC V2.10 B1813,2013-02-25 11:03:00,
2013-02-25 06:08:00,27.0,26.5,29.99,WNW,287,0.0,0.0,98,0.00,,,0.00,LWC V2.10 B1813,2013-02-25 11:08:00,
2013-02-25 06:13:00,26.8,26.3,30.00,WNW,287,0.0,0.0,98,0.00,,,0.00,LWC V2.10 B1813,2013-02-25 11:13:00,
2013-02-25 06:18:00,26.9,26.4,30.00,WNW,289,0.0,0.0,98,0.00,,,0.00,LWC V2.10 B1813,2013-02-25 11:18:00,
2013-02-25 06:23:00,26.9,26.4,30.00,WNW,300,1.0,1.0,98,0.00,,,0.00,LWC V2.10 B1813,2013-02-25 11:23:00,
2013-02-25 06:28:00,26.9,26.4,30.00,WNW,293,1.0,1.0,98,0.00,,,0.00,LWC V2.10 B1813,2013-02-25 11:28:00,
2013-02-25 06:33:00,27.0,26.5,30.01,WNW,282,1.0,1.0,98,0.00,,,0.00,LWC V2.10 B1813,2013-02-25 11:33:00,
2013-02-25 06:38:00,27.0,26.5,30.01,WNW,293,1.0,1.0,98,0.00,,,0.00,LWC V2.10 B1813,2013-02-25 11:38:00,
2013-02-25 06:43:00,27.1,26.6,30.01,WNW,293,0.0,1.0,98,0.00,,,0.00,LWC V2.10 B1813,2013-02-25 11:43:00,
2013-02-25 06:48:00,27.0,26.5,30.01,WNW,293,0.0,0.0,98,0.00,,,0.00,LWC V2.10 B1813,2013-02-25 11:48:00,
2013-02-25 06:53:00,27.0,26.5,30.01,WNW,293,0.0,0.0,98,0.00,,,0.00,LWC V2.10 B1813,2013-02-25 11:53:00,
2013-02-25 06:58:00,26.9,26.4,30.01,WNW,293,0.0,0.0,98,0.00,,,0.00,LWC V2.10 B1813,2013-02-25 11:58:00,
2013-02-25 07:03:00,27.1,26.6,30.01,WNW,293,0.0,0.0,98,0.00,,,0.00,LWC V2.10 B1813,2013-02-25 12:03:00,
2013-02-25 07:08:00,27.3,26.8,30.02,WNW,291,0.0,1.0,98,0.00,,,0.00,LWC V2.10 B1813,2013-02-25 12:08:00,
2013-02-25 07:13:00,27.8,27.3,30.02,WNW,291,0.0,0.0,98,0.00,,,0.00,LWC V2.10 B1813,2013-02-25 12:13:00,
2013-02-25 07:18:00,28.1,27.6,30.02,WNW,291,0.0,0.0,98,0.00,,,0.00,LWC V2.10 B1813,2013-02-25 12:18:00,
2013-02-25 07:23:00,27.9,27.2,30.02,WNW,291,0.0,0.0,97,0.00,,,0.00,LWC V2.10 B1813,2013-02-25 12:23:00,
2013-02-25 07:28:00,27.8,27.1,30.03,WNW,291,0.0,0.0,97,0.00,,,0.00,LWC V2.10 B1813,2013-02-25 12:28:00,
2013-02-25 07:33:00,27.7,27.0,30.03,WNW,291,0.0,0.0,97,0.00,,,0.00,LWC V2.10 B1813,2013-02-25 12:33:00,
2013-02-25 07:38:00,27.6,26.9,30.03,WSW,248,0.0,1.0,97,0.00,,,0.00,LWC V2.10 B1813,2013-02-25 12:38:00,
2013-02-25 07:43:00,27.6,26.9,30.03,WSW,248,0.0,0.0,97,0.00,,,0.00,LWC V2.10 B1813,2013-02-25 12:43:00,
2013-02-25 07:48:00,27.8,27.1,30.04,WSW,248,0.0,0.0,97,0.00,,,0.00,LWC V2.10 B1813,2013-02-25 12:48:00,
2013-02-25 07:58:00,28.3,27.8,30.04,WSW,248,0.0,0.0,98,0.00,,,0.00,LWC V2.10 B1813,2013-02-25 12:58:00,
2013-02-25 08:03:00,28.7,28.2,30.04,WSW,248,0.0,0.0,98,0.00,,,0.00,LWC V2.10 B1813,2013-02-25 13:03:00,
2013-02-25 08:08:00,28.9,28.4,30.04,WSW,247,0.0,0.0,98,0.00,,,0.00,LWC V2.10 B1813,2013-02-25 13:08:00,
2013-02-25 08:13:00,29.1,28.6,30.04,ESE,107,1.0,1.0,98,0.00,,,0.00,LWC V2.10 B1813,2013-02-25 13:13:00,
2013-02-25 08:18:00,29.2,28.5,30.04,East,101,0.0,0.0,97,0.00,,,0.00,LWC V2.10 B1813,2013-02-25 13:18:00,
2013-02-25 08:23:00,29.3,28.6,30.04,East,101,0.0,0.0,97,0.00,,,0.00,LWC V2.10 B1813,2013-02-25 13:23:00,
2013-02-25 08:28:00,29.6,28.9,30.04,East,101,0.0,0.0,97,0.00,,,0.00,LWC V2.10 B1813,2013-02-25 13:28:00,
2013-02-25 08:33:00,30.0,29.3,30.05,East,101,0.0,0.0,97,0.00,,,0.00,LWC V2.10 B1813,2013-02-25 13:33:00,
2013-02-25 08:38:00,30.4,29.7,30.05,East,101,0.0,0.0,97,0.00,,,0.00,LWC V2.10 B1813,2013-02-25 13:38:00,
2013-02-25 08:43:00,30.6,29.9,30.05,East,101,0.0,0.0,97,0.00,,,0.00,LWC V2.10 B1813,2013-02-25 13:43:00,
2013-02-25 08:48:00,31.0,30.2,30.05,East,100,0.0,0.0,97,0.00,,,0.00,LWC V2.10 B1813,2013-02-25 13:48:00,
2013-02-25 08:53:00,31.3,30.5,30.05,East,101,0.0,0.0,97,0.00,,,0.00,LWC V2.10 B1813,2013-02-25 13:53:00,
2013-02-25 08:58:00,31.5,30.5,30.06,SE,124,0.0,0.0,96,0.00,,,0.00,LWC V2.10 B1813,2013-02-25 13:58:00,
2013-02-25 09:08:00,31.9,30.9,30.06,SE,124,0.0,0.0,96,0.00,,,0.00,LWC V2.10 B1813,2013-02-25 14:08:00,
2013-02-25 09:13:00,32.2,30.9,30.06,ESE,116,0.0,0.0,95,0.00,,,0.00,LWC V2.10 B1813,2013-02-25 14:13:00,
2013-02-25 09:23:00,32.6,31.3,30.06,SSE,149,0.0,1.0,95,0.00,,,0.00,LWC V2.10 B1813,2013-02-25 14:23:00,
2013-02-25 09:28:00,33.0,31.7,30.07,SSE,148,0.0,0.0,95,0.00,,,0.00,LWC V2.10 B1813,2013-02-25 14:28:00,
2013-02-25 09:33:00,33.2,31.4,30.07,NW,314,0.0,2.0,93,0.00,,,0.00,LWC V2.10 B1813,2013-02-25 14:33:00,
2013-02-25 09:38:00,33.3,31.5,30.07,ESE,111,0.0,0.0,93,0.00,,,0.00,LWC V2.10 B1813,2013-02-25 14:38:00,
2013-02-25 09:43:00,33.5,31.4,30.07,NW,320,1.0,1.0,92,0.00,,,0.00,LWC V2.10 B1813,2013-02-25 14:43:00,
2013-02-25 09:48:00,33.5,31.4,30.07,NNW,342,0.0,1.0,92,0.00,,,0.00,LWC V2.10 B1813,2013-02-25 14:48:00,
2013-02-25 09:53:00,33.6,31.3,30.07,NNW,332,2.0,2.0,91,0.00,,,0.00,LWC V2.10 B1813,2013-02-25 14:53:00,
2013-02-25 09:58:00,33.7,31.6,30.08,North,1,0.0,0.0,92,0.00,,,0.00,LWC V2.10 B1813,2013-02-25 14:58:00,
2013-02-25 10:03:00,33.8,31.5,30.08,North,357,0.0,1.0,91,0.00,,,0.00,LWC V2.10 B1813,2013-02-25 15:03:00,
2013-02-25 10:08:00,33.9,31.8,30.08,North,357,0.0,0.0,92,0.00,,,0.00,LWC V2.10 B1813,2013-02-25 15:08:00,
2013-02-25 10:13:00,34.1,32.3,30.08,North,358,0.0,1.0,93,0.00,,,0.00,LWC V2.10 B1813,2013-02-25 15:13:00,
2013-02-25 10:18:00,34.2,32.1,30.07,North,358,0.0,0.0,92,0.00,,,0.00,LWC V2.10 B1813,2013-02-25 15:18:00,
2013-02-25 10:23:00,34.3,32.0,30.08,North,358,0.0,0.0,91,0.00,,,0.00,LWC V2.10 B1813,2013-02-25 15:23:00,
2013-02-25 10:28:00,34.4,32.0,30.07,WNW,291,0.0,1.0,91,0.00,,,0.00,LWC V2.10 B1813,2013-02-25 15:28:00,
2013-02-25 10:33:00,34.3,32.0,30.07,NW,308,0.0,0.0,91,0.00,,,0.00,LWC V2.10 B1813,2013-02-25 15:33:00,
2013-02-25 10:38:00,34.3,32.0,30.08,NW,313,0.0,0.0,91,0.00,,,0.00,LWC V2.10 B1813,2013-02-25 15:38:00,
2013-02-25 10:43:00,34.3,32.0,30.08,WNW,298,0.0,1.0,91,0.00,,,0.00,LWC V2.10 B1813,2013-02-25 15:43:00,
2013-02-25 10:48:00,34.3,32.2,30.07,WNW,298,0.0,0.0,92,0.00,,,0.00,LWC V2.10 B1813,2013-02-25 15:48:00,
2013-02-25 10:53:00,34.4,32.3,30.08,NNW,339,0.0,2.0,92,0.00,,,0.00,LWC V2.10 B1813,2013-02-25 15:53:00,
2013-02-25 10:58:00,34.4,32.0,30.08,WNW,301,1.0,1.0,91,0.00,,,0.00,LWC V2.10 B1813,2013-02-25 15:58:00,
2013-02-25 11:03:00,34.5,31.9,30.08,WNW,301,0.0,0.0,90,0.00,,,0.00,LWC V2.10 B1813,2013-02-25 16:03:00,
2013-02-25 11:08:00,34.7,32.3,30.08,West,272,1.0,1.0,91,0.00,,,0.00,LWC V2.10 B1813,2013-02-25 16:08:00,
2013-02-25 11:13:00,34.8,32.4,30.08,West,273,0.0,0.0,91,0.00,,,0.00,LWC V2.10 B1813,2013-02-25 16:13:00,
2013-02-25 11:18:00,34.9,32.5,30.08,North,0,2.0,2.0,91,0.00,,,0.00,LWC V2.10 B1813,2013-02-25 16:18:00,
2013-02-25 11:23:00,34.8,32.2,30.08,North,353,0.0,1.0,90,0.00,,,0.00,LWC V2.10 B1813,2013-02-25 16:23:00,
2013-02-25 11:28:00,34.9,32.5,30.08,WNW,301,0.0,1.0,91,0.00,,,0.00,LWC V2.10 B1813,2013-02-25 16:28:00,
2013-02-25 11:33:00,34.9,32.3,30.08,WNW,303,0.0,1.0,90,0.00,,,0.00,LWC V2.10 B1813,2013-02-25 16:33:00,
2013-02-25 11:38:00,35.0,32.4,30.08,WNW,283,1.0,1.0,90,0.00,,,0.00,LWC V2.10 B1813,2013-02-25 16:38:00,
2013-02-25 11:43:00,35.1,32.7,30.08,WNW,286,0.0,0.0,91,0.00,,,0.00,LWC V2.10 B1813,2013-02-25 16:43:00,
2013-02-25 11:48:00,35.2,32.8,30.08,WNW,296,0.0,1.0,91,0.00,,,0.00,LWC V2.10 B1813,2013-02-25 16:48:00,
2013-02-25 11:53:00,35.3,32.7,30.08,West,273,1.0,2.0,90,0.00,,,0.00,LWC V2.10 B1813,2013-02-25 16:53:00,
2013-02-25 11:58:00,35.4,33.0,30.08,NNW,328,0.0,1.0,91,0.00,,,0.00,LWC V2.10 B1813,2013-02-25 16:58:00,
2013-02-25 12:03:00,35.5,32.9,30.08,WSW,252,1.0,2.0,90,0.00,,,0.00,LWC V2.10 B1813,2013-02-25 17:03:00,
2013-02-25 12:08:00,35.4,32.2,30.08,NW,313,3.0,4.0,88,0.00,,,0.00,LWC V2.10 B1813,2013-02-25 17:08:00,
2013-02-25 12:13:00,35.4,32.2,30.08,WNW,301,1.0,3.0,88,0.00,,,0.00,LWC V2.10 B1813,2013-02-25 17:13:00,
2013-02-25 12:18:00,35.4,32.8,30.08,West,272,1.0,2.0,90,0.00,,,0.00,LWC V2.10 B1813,2013-02-25 17:18:00,
2013-02-25 12:23:00,35.3,32.7,30.08,WNW,303,1.0,2.0,90,0.00,,,0.00,LWC V2.10 B1813,2013-02-25 17:23:00,
2013-02-25 12:28:00,35.2,32.6,30.08,WNW,300,2.0,2.0,90,0.00,,,0.00,LWC V2.10 B1813,2013-02-25 17:28:00,
2013-02-25 12:33:00,35.1,32.5,30.09,NW,313,1.0,5.0,90,0.00,,,0.00,LWC V2.10 B1813,2013-02-25 17:33:00,
2013-02-25 12:38:00,35.1,32.5,30.09,WNW,289,1.0,2.0,90,0.00,,,0.00,LWC V2.10 B1813,2013-02-25 17:38:00,
2013-02-25 12:43:00,35.2,32.6,30.09,NW,320,3.0,4.0,90,0.00,,,0.00,LWC V2.10 B1813,2013-02-25 17:43:00,
2013-02-25 12:48:00,35.3,32.7,30.09,WNW,303,0.0,2.0,90,0.00,,,0.00,LWC V2.10 B1813,2013-02-25 17:48:00,
2013-02-25 12:53:00,35.4,32.5,30.09,WNW,291,2.0,4.0,89,0.00,,,0.00,LWC V2.10 B1813,2013-02-25 17:53:00,
2013-02-25 12:58:00,35.5,32.6,30.09,NNW,331,1.0,4.0,89,0.00,,,0.00,LWC V2.10 B1813,2013-02-25 17:58:00,
2013-02-25 13:03:00,35.6,32.7,30.09,NNW,346,1.0,3.0,89,0.00,,,0.00,LWC V2.10 B1813,2013-02-25 18:03:00,
2013-02-25 13:08:00,35.7,32.8,30.10,NW,310,2.0,3.0,89,0.00,,,0.00,LWC V2.10 B1813,2013-02-25 18:08:00,
2013-02-25 13:13:00,35.7,32.8,30.10,WNW,293,3.0,4.0,89,0.00,,,0.01,LWC V2.10 B1813,2013-02-25 18:13:00,
2013-02-25 13:18:00,35.6,32.4,30.10,WNW,293,4.0,4.0,88,0.00,,,0.01,LWC V2.10 B1813,2013-02-25 18:18:00,
2013-02-25 13:23:00,35.6,32.1,30.10,WNW,291,3.0,4.0,87,0.00,,,0.01,LWC V2.10 B1813,2013-02-25 18:23:00,
2013-02-25 13:28:00,35.7,32.5,30.11,WNW,284,0.0,1.0,88,0.00,,,0.01,LWC V2.10 B1813,2013-02-25 18:28:00,
2013-02-25 13:33:00,35.7,32.8,30.10,NW,304,1.0,2.0,89,0.00,,,0.01,LWC V2.10 B1813,2013-02-25 18:33:00,
2013-02-25 13:38:00,35.8,32.9,30.11,WNW,303,1.0,2.0,89,0.00,,,0.01,LWC V2.10 B1813,2013-02-25 18:38:00,
2013-02-25 13:43:00,35.8,32.6,30.11,WNW,303,1.0,1.0,88,0.00,,,0.01,LWC V2.10 B1813,2013-02-25 18:43:00,
2013-02-25 13:48:00,36.0,33.1,30.11,NW,320,0.0,0.0,89,0.00,,,0.01,LWC V2.10 B1813,2013-02-25 18:48:00,
2013-02-25 13:53:00,36.2,33.3,30.11,NW,320,0.0,1.0,89,0.00,,,0.01,LWC V2.10 B1813,2013-02-25 18:53:00,
2013-02-25 13:58:00,36.3,33.4,30.11,NW,320,0.0,0.0,89,0.00,,,0.01,LWC V2.10 B1813,2013-02-25 18:58:00,
2013-02-25 14:03:00,36.3,33.1,30.12,West,273,0.0,1.0,88,0.00,,,0.01,LWC V2.10 B1813,2013-02-25 19:03:00,
2013-02-25 14:08:00,36.2,32.4,30.12,WNW,282,0.0,2.0,86,0.00,,,0.01,LWC V2.10 B1813,2013-02-25 19:08:00,
2013-02-25 14:13:00,36.2,32.7,30.12,WNW,303,1.0,1.0,87,0.00,,,0.01,LWC V2.10 B1813,2013-02-25 19:13:00,
2013-02-25 14:18:00,36.1,32.9,30.12,West,268,0.0,0.0,88,0.00,,,0.01,LWC V2.10 B1813,2013-02-25 19:18:00,
2013-02-25 14:23:00,36.1,32.6,30.12,West,270,0.0,1.0,87,0.00,,,0.01,LWC V2.10 B1813,2013-02-25 19:23:00,
2013-02-25 14:28:00,36.2,33.3,30.12,West,270,0.0,1.0,89,0.00,,,0.01,LWC V2.10 B1813,2013-02-25 19:28:00,
2013-02-25 14:33:00,36.2,33.8,30.11,West,270,0.0,0.0,91,0.00,,,0.01,LWC V2.10 B1813,2013-02-25 19:33:00,
2013-02-25 14:38:00,36.0,33.1,30.12,West,275,1.0,1.0,89,0.00,,,0.01,LWC V2.10 B1813,2013-02-25 19:38:00,
2013-02-25 14:43:00,36.0,33.4,30.12,WNW,291,1.0,1.0,90,0.00,,,0.01,LWC V2.10 B1813,2013-02-25 19:43:00,
2013-02-25 14:48:00,36.0,33.1,30.12,West,279,1.0,1.0,89,0.00,,,0.01,LWC V2.10 B1813,2013-02-25 19:48:00,
2013-02-25 14:53:00,35.9,33.3,30.12,WNW,283,0.0,0.0,90,0.00,,,0.01,LWC V2.10 B1813,2013-02-25 19:53:00,
2013-02-25 14:58:00,36.0,33.6,30.12,WNW,283,0.0,0.0,91,0.00,,,0.01,LWC V2.10 B1813,2013-02-25 19:58:00,
2013-02-25 15:03:00,36.0,33.6,30.13,WNW,283,0.0,0.0,91,0.00,,,0.01,LWC V2.10 B1813,2013-02-25 20:03:00,
2013-02-25 15:08:00,36.0,33.9,30.13,WNW,283,0.0,0.0,92,0.00,,,0.01,LWC V2.10 B1813,2013-02-25 20:08:00,
2013-02-25 15:13:00,35.9,33.8,30.13,WNW,283,0.0,1.0,92,0.00,,,0.01,LWC V2.10 B1813,2013-02-25 20:13:00,
2013-02-25 15:18:00,35.8,33.4,30.13,WNW,283,0.0,0.0,91,0.00,,,0.01,LWC V2.10 B1813,2013-02-25 20:18:00,
2013-02-25 15:23:00,35.9,33.3,30.13,WNW,283,0.0,0.0,90,0.00,,,0.01,LWC V2.10 B1813,2013-02-25 20:23:00,
2013-02-25 15:28:00,35.9,33.5,30.13,WNW,282,0.0,0.0,91,0.00,,,0.01,LWC V2.10 B1813,2013-02-25 20:28:00,
2013-02-25 15:33:00,35.9,33.5,30.13,WNW,283,0.0,0.0,91,0.00,,,0.01,LWC V2.10 B1813,2013-02-25 20:33:00,
2013-02-25 15:38:00,36.0,33.6,30.13,WNW,283,0.0,0.0,91,0.00,,,0.01,LWC V2.10 B1813,2013-02-25 20:38:00,
2013-02-25 15:43:00,36.0,33.6,30.13,WNW,283,0.0,0.0,91,0.00,,,0.01,LWC V2.10 B1813,2013-02-25 20:43:00,
2013-02-25 15:48:00,35.8,33.4,30.13,WNW,283,0.0,0.0,91,0.00,,,0.01,LWC V2.10 B1813,2013-02-25 20:48:00,
2013-02-25 15:53:00,35.7,33.6,30.13,WNW,283,0.0,0.0,92,0.00,,,0.01,LWC V2.10 B1813,2013-02-25 20:53:00,
2013-02-25 15:58:00,35.6,33.5,30.13,WNW,283,0.0,0.0,92,0.00,,,0.01,LWC V2.10 B1813,2013-02-25 20:58:00,
2013-02-25 16:03:00,35.3,33.5,30.13,WNW,283,0.0,0.0,93,0.00,,,0.01,LWC V2.10 B1813,2013-02-25 21:03:00,
2013-02-25 16:08:00,35.1,33.3,30.13,WNW,283,0.0,0.0,93,0.00,,,0.01,LWC V2.10 B1813,2013-02-25 21:08:00,
2013-02-25 16:13:00,35.1,33.5,30.13,WNW,283,0.0,0.0,94,0.00,,,0.01,LWC V2.10 B1813,2013-02-25 21:13:00,
2013-02-25 16:18:00,35.0,33.5,30.13,WNW,283,0.0,0.0,94,0.00,,,0.01,LWC V2.10 B1813,2013-02-25 21:18:00,
2013-02-25 16:23:00,34.8,33.5,30.13,WNW,283,0.0,0.0,95,0.00,,,0.01,LWC V2.10 B1813,2013-02-25 21:23:00,
2013-02-25 16:28:00,34.7,33.4,30.13,WNW,283,0.0,1.0,95,0.00,,,0.01,LWC V2.10 B1813,2013-02-25 21:28:00,
2013-02-25 16:33:00,34.7,33.4,30.13,WNW,282,0.0,0.0,95,0.00,,,0.01,LWC V2.10 B1813,2013-02-25 21:33:00,
2013-02-25 16:38:00,34.5,33.2,30.13,WNW,283,0.0,0.0,95,0.00,,,0.01,LWC V2.10 B1813,2013-02-25 21:38:00,
2013-02-25 16:43:00,34.6,33.6,30.13,WNW,283,0.0,0.0,96,0.00,,,0.01,LWC V2.10 B1813,2013-02-25 21:43:00,
2013-02-25 16:48:00,34.6,33.6,30.13,WNW,283,0.0,0.0,96,0.00,,,0.01,LWC V2.10 B1813,2013-02-25 21:48:00,
2013-02-25 16:53:00,34.5,33.5,30.14,WNW,283,0.0,0.0,96,0.00,,,0.01,LWC V2.10 B1813,2013-02-25 21:53:00,
2013-02-25 16:58:00,34.5,33.5,30.14,WNW,283,0.0,0.0,96,0.00,,,0.01,LWC V2.10 B1813,2013-02-25 21:58:00,
2013-02-25 17:03:00,34.4,33.4,30.14,WNW,283,0.0,0.0,96,0.00,,,0.01,LWC V2.10 B1813,2013-02-25 22:03:00,
2013-02-25 17:08:00,34.3,33.3,30.14,WNW,282,0.0,0.0,96,0.00,,,0.01,LWC V2.10 B1813,2013-02-25 22:08:00,
2013-02-25 17:13:00,34.3,33.3,30.14,WNW,283,0.0,0.0,96,0.00,,,0.01,LWC V2.10 B1813,2013-02-25 22:13:00,
2013-02-25 17:18:00,34.2,33.2,30.14,WNW,283,0.0,0.0,96,0.00,,,0.01,LWC V2.10 B1813,2013-02-25 22:18:00,
2013-02-25 17:23:00,34.1,33.1,30.14,WNW,283,0.0,0.0,96,0.00,,,0.01,LWC V2.10 B1813,2013-02-25 22:23:00,
2013-02-25 17:28:00,33.9,33.1,30.14,WNW,283,0.0,0.0,97,0.00,,,0.01,LWC V2.10 B1813,2013-02-25 22:28:00,
2013-02-25 17:33:00,33.8,33.0,30.14,WNW,283,0.0,0.0,97,0.00,,,0.01,LWC V2.10 B1813,2013-02-25 22:33:00,
2013-02-25 17:38:00,33.7,32.9,30.14,WNW,283,0.0,0.0,97,0.00,,,0.01,LWC V2.10 B1813,2013-02-25 22:38:00,
2013-02-25 17:43:00,33.6,32.8,30.14,WNW,283,0.0,0.0,97,0.00,,,0.01,LWC V2.10 B1813,2013-02-25 22:43:00,
2013-02-25 17:48:00,33.5,32.7,30.15,WNW,283,0.0,0.0,97,0.00,,,0.01,LWC V2.10 B1813,2013-02-25 22:48:00,
2013-02-25 17:53:00,33.4,32.6,30.15,WNW,283,0.0,0.0,97,0.00,,,0.01,LWC V2.10 B1813,2013-02-25 22:53:00,
2013-02-25 17:58:00,33.3,32.5,30.15,WNW,283,0.0,0.0,97,0.00,,,0.01,LWC V2.10 B1813,2013-02-25 22:58:00,
2013-02-25 18:03:00,33.2,32.4,30.15,WNW,282,0.0,0.0,97,0.00,,,0.01,LWC V2.10 B1813,2013-02-25 23:03:00,
2013-02-25 18:08:00,33.2,32.4,30.15,WNW,283,0.0,0.0,97,0.00,,,0.01,LWC V2.10 B1813,2013-02-25 23:08:00,
2013-02-25 18:13:00,33.1,32.3,30.15,WNW,283,0.0,0.0,97,0.00,,,0.01,LWC V2.10 B1813,2013-02-25 23:13:00,
2013-02-25 18:18:00,33.0,32.2,30.15,WNW,283,0.0,0.0,97,0.00,,,0.01,LWC V2.10 B1813,2013-02-25 23:18:00,
2013-02-25 18:23:00,32.9,32.1,30.16,WNW,283,0.0,0.0,97,0.00,,,0.01,LWC V2.10 B1813,2013-02-25 23:23:00,
2013-02-25 18:28:00,32.9,32.4,30.16,WNW,283,0.0,0.0,98,0.00,,,0.01,LWC V2.10 B1813,2013-02-25 23:28:00,
2013-02-25 18:33:00,32.8,32.3,30.16,WNW,283,0.0,0.0,98,0.00,,,0.01,LWC V2.10 B1813,2013-02-25 23:33:00,
2013-02-25 18:38:00,32.8,32.3,30.16,WNW,283,0.0,0.0,98,0.00,,,0.01,LWC V2.10 B1813,2013-02-25 23:38:00,
2013-02-25 18:43:00,32.8,32.3,30.17,WNW,283,0.0,0.0,98,0.00,,,0.01,LWC V2.10 B1813,2013-02-25 23:43:00,
2013-02-25 18:48:00,32.8,32.3,30.17,WNW,283,0.0,0.0,98,0.00,,,0.01,LWC V2.10 B1813,2013-02-25 23:48:00,
2013-02-25 18:53:00,32.8,32.3,30.17,WNW,283,0.0,0.0,98,0.00,,,0.01,LWC V2.10 B1813,2013-02-25 23:53:00,
2013-02-25 18:58:00,32.8,32.3,30.17,WNW,283,0.0,0.0,98,0.00,,,0.01,LWC V2.10 B1813,2013-02-25 23:58:00,
2013-02-25 19:03:00,32.7,32.2,30.17,WNW,283,0.0,0.0,98,0.00,,,0.01,LWC V2.10 B1813,2013-02-26 00:03:00,
2013-02-25 19:08:00,32.7,32.2,30.18,WNW,283,0.0,0.0,98,0.00,,,0.01,LWC V2.10 B1813,2013-02-26 00:08:00,
2013-02-25 19:13:00,32.6,32.1,30.18,WNW,283,0.0,0.0,98,0.00,,,0.01,LWC V2.10 B1813,2013-02-26 00:13:00,
2013-02-25 19:18:00,32.6,32.1,30.18,WNW,283,0.0,0.0,98,0.00,,,0.01,LWC V2.10 B1813,2013-02-26 00:18:00,
2013-02-25 19:23:00,32.6,32.1,30.18,WNW,283,0.0,0.0,98,0.00,,,0.01,LWC V2.10 B1813,2013-02-26 00:23:00,
2013-02-25 19:28:00,32.5,32.0,30.18,WNW,283,0.0,0.0,98,0.00,,,0.01,LWC V2.10 B1813,2013-02-26 00:28:00,
2013-02-25 19:33:00,32.5,32.0,30.19,WNW,282,0.0,0.0,98,0.00,,,0.01,LWC V2.10 B1813,2013-02-26 00:33:00,
2013-02-25 19:38:00,32.4,31.9,30.19,WNW,283,0.0,0.0,98,0.00,,,0.01,LWC V2.10 B1813,2013-02-26 00:38:00,
2013-02-25 19:43:00,32.4,31.9,30.19,WNW,283,0.0,0.0,98,0.00,,,0.01,LWC V2.10 B1813,2013-02-26 00:43:00,
2013-02-25 19:48:00,32.4,31.9,30.19,WNW,283,0.0,0.0,98,0.00,,,0.01,LWC V2.10 B1813,2013-02-26 00:48:00,
2013-02-25 19:53:00,32.3,31.8,30.19,WNW,283,0.0,0.0,98,0.00,,,0.01,LWC V2.10 B1813,2013-02-26 00:53:00,
2013-02-25 19:58:00,32.3,31.8,30.19,WNW,283,0.0,0.0,98,0.00,,,0.01,LWC V2.10 B1813,2013-02-26 00:58:00,
2013-02-25 20:03:00,32.2,31.7,30.19,WNW,283,0.0,0.0,98,0.00,,,0.01,LWC V2.10 B1813,2013-02-26 01:03:00,
2013-02-25 20:08:00,32.1,31.6,30.19,WNW,283,0.0,0.0,98,0.00,,,0.01,LWC V2.10 B1813,2013-02-26 01:08:00,
2013-02-25 20:13:00,32.0,31.5,30.19,WNW,283,0.0,0.0,98,0.00,,,0.01,LWC V2.10 B1813,2013-02-26 01:13:00,
2013-02-25 20:18:00,31.9,31.4,30.19,WNW,283,0.0,0.0,98,0.00,,,0.01,LWC V2.10 B1813,2013-02-26 01:18:00,
2013-02-25 20:23:00,31.8,31.3,30.19,WNW,283,0.0,0.0,98,0.00,,,0.01,LWC V2.10 B1813,2013-02-26 01:23:00,
2013-02-25 20:28:00,31.7,31.2,30.19,West,280,1.0,1.0,98,0.00,,,0.01,LWC V2.10 B1813,2013-02-26 01:28:00,
2013-02-25 20:33:00,31.7,31.2,30.20,West,279,1.0,1.0,98,0.00,,,0.01,LWC V2.10 B1813,2013-02-26 01:33:00,
2013-02-25 20:38:00,31.7,31.2,30.20,West,279,1.0,1.0,98,0.00,,,0.01,LWC V2.10 B1813,2013-02-26 01:38:00,
2013-02-25 20:43:00,31.6,31.1,30.20,West,279,0.0,0.0,98,0.00,,,0.01,LWC V2.10 B1813,2013-02-26 01:43:00,
2013-02-25 20:48:00,31.6,31.1,30.20,West,279,0.0,0.0,98,0.00,,,0.01,LWC V2.10 B1813,2013-02-26 01:48:00,
2013-02-25 20:53:00,31.5,31.0,30.20,West,279,0.0,0.0,98,0.00,,,0.01,LWC V2.10 B1813,2013-02-26 01:53:00,
2013-02-25 20:58:00,31.3,30.8,30.20,West,279,0.0,0.0,98,0.00,,,0.01,LWC V2.10 B1813,2013-02-26 01:58:00,
2013-02-25 21:03:00,31.0,30.5,30.19,West,279,0.0,0.0,98,0.00,,,0.01,LWC V2.10 B1813,2013-02-26 02:03:00,
2013-02-25 21:08:00,30.9,30.4,30.19,West,279,0.0,0.0,98,0.00,,,0.01,LWC V2.10 B1813,2013-02-26 02:08:00,
2013-02-25 21:13:00,30.9,30.4,30.19,West,279,0.0,0.0,98,0.00,,,0.01,LWC V2.10 B1813,2013-02-26 02:13:00,
2013-02-25 21:18:00,31.0,30.5,30.19,West,279,0.0,1.0,98,0.00,,,0.01,LWC V2.10 B1813,2013-02-26 02:18:00,
2013-02-25 21:23:00,31.0,30.5,30.20,West,279,0.0,1.0,98,0.00,,,0.01,LWC V2.10 B1813,2013-02-26 02:23:00,
2013-02-25 21:28:00,31.2,30.7,30.20,West,277,1.0,1.0,98,0.00,,,0.01,LWC V2.10 B1813,2013-02-26 02:28:00,
2013-02-25 21:33:00,31.3,30.8,30.20,West,279,1.0,2.0,98,0.00,,,0.01,LWC V2.10 B1813,2013-02-26 02:33:00,
2013-02-25 21:38:00,31.2,30.7,30.20,West,279,1.0,2.0,98,0.00,,,0.01,LWC V2.10 B1813,2013-02-26 02:38:00,
2013-02-25 21:43:00,31.1,30.6,30.20,West,279,0.0,0.0,98,0.00,,,0.01,LWC V2.10 B1813,2013-02-26 02:43:00,
2013-02-25 21:48:00,30.9,30.4,30.20,West,279,0.0,0.0,98,0.00,,,0.01,LWC V2.10 B1813,2013-02-26 02:48:00,
2013-02-25 21:53:00,30.7,30.2,30.20,West,279,0.0,0.0,98,0.00,,,0.01,LWC V2.10 B1813,2013-02-26 02:53:00,
2013-02-25 21:58:00,30.6,30.1,30.20,West,279,0.0,0.0,98,0.00,,,0.01,LWC V2.10 B1813,2013-02-26 02:58:00,
2013-02-25 22:03:00,30.4,29.9,30.19,West,279,0.0,1.0,98,0.00,,,0.01,LWC V2.10 B1813,2013-02-26 03:03:00,
2013-02-25 22:08:00,30.4,29.9,30.19,West,279,0.0,1.0,98,0.00,,,0.01,LWC V2.10 B1813,2013-02-26 03:08:00,
2013-02-25 22:13:00,30.2,29.7,30.19,West,279,0.0,0.0,98,0.00,,,0.01,LWC V2.10 B1813,2013-02-26 03:13:00,
2013-02-25 22:18:00,30.0,29.5,30.19,West,279,0.0,0.0,98,0.00,,,0.01,LWC V2.10 B1813,2013-02-26 03:18:00,
2013-02-25 22:23:00,30.0,29.5,30.20,West,279,0.0,0.0,98,0.00,,,0.01,LWC V2.10 B1813,2013-02-26 03:23:00,
2013-02-25 22:28:00,29.9,29.4,30.20,West,279,0.0,0.0,98,0.00,,,0.01,LWC V2.10 B1813,2013-02-26 03:28:00,
2013-02-25 22:33:00,29.8,29.3,30.20,West,279,0.0,0.0,98,0.00,,,0.01,LWC V2.10 B1813,2013-02-26 03:33:00,
2013-02-25 22:38:00,29.8,29.3,30.20,West,279,0.0,0.0,98,0.00,,,0.01,LWC V2.10 B1813,2013-02-26 03:38:00,
2013-02-25 22:43:00,29.7,29.2,30.20,West,279,0.0,0.0,98,0.00,,,0.01,LWC V2.10 B1813,2013-02-26 03:43:00,
2013-02-25 22:48:00,29.6,29.1,30.20,West,279,0.0,0.0,98,0.00,,,0.01,LWC V2.10 B1813,2013-02-26 03:48:00,
2013-02-25 22:53:00,29.6,29.1,30.20,WSW,238,0.0,0.0,98,0.00,,,0.01,LWC V2.10 B1813,2013-02-26 03:53:00,
2013-02-25 22:58:00,29.4,28.9,30.20,WSW,239,0.0,0.0,98,0.00,,,0.01,LWC V2.10 B1813,2013-02-26 03:58:00,
2013-02-25 23:03:00,29.4,28.9,30.20,WSW,244,0.0,0.0,98,0.00,,,0.01,LWC V2.10 B1813,2013-02-26 04:03:00,
2013-02-25 23:08:00,29.4,28.9,30.21,WSW,244,0.0,0.0,98,0.00,,,0.01,LWC V2.10 B1813,2013-02-26 04:08:00,
2013-02-25 23:13:00,29.4,28.9,30.20,WSW,244,0.0,0.0,98,0.00,,,0.01,LWC V2.10 B1813,2013-02-26 04:13:00,
2013-02-25 23:18:00,29.3,28.8,30.21,WSW,244,0.0,0.0,98,0.00,,,0.01,LWC V2.10 B1813,2013-02-26 04:18:00,
2013-02-25 23:23:00,29.3,28.8,30.21,WSW,244,0.0,0.0,98,0.00,,,0.01,LWC V2.10 B1813,2013-02-26 04:23:00,
2013-02-25 23:28:00,29.3,28.8,30.21,WSW,244,0.0,0.0,98,0.00,,,0.01,LWC V2.10 B1813,2013-02-26 04:28:00,
2013-02-25 23:33:00,29.3,29.1,30.21,WSW,244,0.0,0.0,99,0.00,,,0.01,LWC V2.10 B1813,2013-02-26 04:33:00,
2013-02-25 23:38:00,29.3,29.1,30.22,WSW,244,0.0,0.0,99,0.00,,,0.01,LWC V2.10 B1813,2013-02-26 04:38:00,
2013-02-25 23:43:00,29.4,29.2,30.22,WSW,244,0.0,0.0,99,0.00,,,0.01,LWC V2.10 B1813,2013-02-26 04:43:00,
2013-02-25 23:48:00,29.4,29.2,30.22,WSW,244,0.0,0.0,99,0.00,,,0.01,LWC V2.10 B1813,2013-02-26 04:48:00,
2013-02-25 23:53:00,29.5,29.3,30.21,WSW,244,0.0,0.0,99,0.00,,,0.01,LWC V2.10 B1813,2013-02-26 04:53:00,
2013-02-25 23:58:00,29.6,29.4,30.22,WSW,244,0.0,0.0,99,0.00,,,0.01,LWC V2.10 B1813,2013-02-26 04:58:00,